createdAt,value
2022-12-26T00:01:20.566Z,63.87
2022-12-26T00:03:47.340Z,63.38
2022-12-26T00:06:15.732Z,63.80
2022-12-26T00:08:42.863Z,64.04
2022-12-26T00:11:09.691Z,63.52
2022-12-26T00:13:38.681Z,63.43
2022-12-26T00:16:11.197Z,63.61
2022-12-26T00:18:38.188Z,63.96
2022-12-26T00:21:05.065Z,63.57
2022-12-26T00:23:32.055Z,63.71
2022-12-26T00:26:02.209Z,63.37
2022-12-26T00:28:28.755Z,63.62
2022-12-26T00:30:55.220Z,64.01
2022-12-26T00:33:21.624Z,63.47
2022-12-26T00:35:48.078Z,63.65
2022-12-26T00:38:14.511Z,63.30
2022-12-26T00:40:43.308Z,63.50
2022-12-26T00:43:09.937Z,63.85
2022-12-26T00:45:36.524Z,63.74
2022-12-26T00:48:03.333Z,64.36
2022-12-26T00:50:34.351Z,64.22
2022-12-26T00:53:01.377Z,64.03
2022-12-26T00:55:28.881Z,63.39
2022-12-26T00:57:55.300Z,63.53
2022-12-26T01:00:21.719Z,63.23
2022-12-26T01:02:48.192Z,62.79
2022-12-26T01:05:14.727Z,63.63
2022-12-26T01:08:22.092Z,63.14
2022-12-26T01:10:28.260Z,64.24
2022-12-26T01:12:54.656Z,62.59
2022-12-26T01:15:21.192Z,64.06
2022-12-26T01:17:47.668Z,63.90
2022-12-26T01:20:14.175Z,63.69
2022-12-26T01:22:40.644Z,63.43
2022-12-26T01:25:07.337Z,63.62
2022-12-26T01:27:33.760Z,63.36
2022-12-26T01:30:00.248Z,63.54
2022-12-26T01:32:26.705Z,63.60
2022-12-26T01:34:55.352Z,63.28
2022-12-26T01:37:23.470Z,63.25
2022-12-26T01:39:49.955Z,62.98
2022-12-26T01:42:18.093Z,63.46
2022-12-26T01:44:54.620Z,64.44
2022-12-26T01:47:22.349Z,64.28
2022-12-26T01:49:50.719Z,64.38
2022-12-26T01:52:22.003Z,64.19
2022-12-26T01:54:50.818Z,64.51
2022-12-26T01:57:20.101Z,64.69
2022-12-26T01:59:47.944Z,64.81
2022-12-26T02:02:15.605Z,64.96
2022-12-26T02:05:04.009Z,64.31
2022-12-26T02:07:31.904Z,64.32
2022-12-26T02:09:58.316Z,64.72
2022-12-26T02:12:37.950Z,64.73
2022-12-26T02:15:09.737Z,64.77
2022-12-26T02:17:36.862Z,64.37
2022-12-26T02:20:20.660Z,64.65
2022-12-26T02:22:47.042Z,64.66
2022-12-26T02:25:32.363Z,65.64
2022-12-26T02:28:17.106Z,65.40
2022-12-26T02:30:50.152Z,64.84
2022-12-26T02:33:39.583Z,65.07
2022-12-26T02:36:19.519Z,65.25
2022-12-26T02:38:54.070Z,65.42
2022-12-26T02:41:28.351Z,65.02
2022-12-26T02:44:00.853Z,66.13
2022-12-26T02:46:54.932Z,65.49
2022-12-26T02:49:21.310Z,66.30
2022-12-26T02:52:09.614Z,65.69
2022-12-26T02:55:02.305Z,65.84
2022-12-26T02:57:52.232Z,65.71
2022-12-26T03:00:39.093Z,65.92
2022-12-26T03:03:24.289Z,65.69
2022-12-26T03:06:14.074Z,65.27
2022-12-26T03:09:03.760Z,65.17
2022-12-26T03:11:52.339Z,65.65
2022-12-26T03:14:21.412Z,65.52
2022-12-26T03:17:09.271Z,65.55
2022-12-26T03:19:38.529Z,65.64
2022-12-26T03:22:25.579Z,65.50
2022-12-26T03:25:18.928Z,65.24
2022-12-26T03:27:45.415Z,65.10
2022-12-26T03:30:30.641Z,65.28
2022-12-26T03:32:58.407Z,65.60
2022-12-26T03:35:27.238Z,65.56
2022-12-26T03:37:59.269Z,65.92
2022-12-26T03:40:47.678Z,65.74
2022-12-26T03:43:44.993Z,65.56
2022-12-26T03:46:35.461Z,65.37
2022-12-26T03:49:26.545Z,65.21
2022-12-26T03:52:14.872Z,65.22
2022-12-26T03:55:12.398Z,65.48
2022-12-26T03:58:00.457Z,65.51
2022-12-26T04:00:47.890Z,65.27
2022-12-26T04:03:33.601Z,65.13
2022-12-26T04:06:20.973Z,65.42
2022-12-26T04:09:13.532Z,65.57
2022-12-26T04:11:59.831Z,65.02
2022-12-26T04:15:04.083Z,65.25
2022-12-26T04:18:11.155Z,65.77
2022-12-26T04:20:45.690Z,65.99
2022-12-26T04:23:34.019Z,65.64
2022-12-26T04:26:19.322Z,65.33
2022-12-26T04:29:04.473Z,64.89
2022-12-26T04:31:52.635Z,64.91
2022-12-26T04:34:40.567Z,64.92
2022-12-26T04:37:28.448Z,64.74
2022-12-26T04:40:15.144Z,64.85
2022-12-26T04:43:01.840Z,64.99
2022-12-26T04:45:48.537Z,64.63
2022-12-26T04:48:33.768Z,64.73
2022-12-26T04:51:00.224Z,64.92
2022-12-26T04:53:26.715Z,64.74
2022-12-26T04:55:53.148Z,65.10
2022-12-26T04:58:19.543Z,65.35
2022-12-26T05:00:45.992Z,65.37
2022-12-26T05:03:31.916Z,65.56
2022-12-26T05:06:17.280Z,64.90
2022-12-26T05:09:03.580Z,65.08
2022-12-26T05:11:31.041Z,64.94
2022-12-26T05:13:58.192Z,64.74
2022-12-26T05:16:44.697Z,64.68
2022-12-26T05:19:30.862Z,64.25
2022-12-26T05:22:16.729Z,65.08
2022-12-26T05:25:02.938Z,65.79
2022-12-26T05:27:52.727Z,65.21
2022-12-26T05:30:19.295Z,65.64
2022-12-26T05:33:04.433Z,65.53
2022-12-26T05:35:30.997Z,65.46
2022-12-26T05:37:57.423Z,65.44
2022-12-26T05:40:23.815Z,64.94
2022-12-26T05:42:50.281Z,65.62
2022-12-26T05:45:16.681Z,65.13
2022-12-26T05:47:48.282Z,65.08
2022-12-26T05:50:18.019Z,65.14
2022-12-26T05:52:44.536Z,65.13
2022-12-26T05:55:10.939Z,65.67
2022-12-26T05:57:37.365Z,65.23
2022-12-26T06:00:04.194Z,65.56
2022-12-26T06:02:31.085Z,65.24
2022-12-26T06:04:57.573Z,65.31
2022-12-26T06:07:24.123Z,65.69
2022-12-26T06:09:50.535Z,65.53
2022-12-26T06:12:16.954Z,65.04
2022-12-26T06:14:43.579Z,64.39
2022-12-26T06:17:10.477Z,64.62
2022-12-26T06:19:41.378Z,64.66
2022-12-26T06:22:11.241Z,64.51
2022-12-26T06:24:37.697Z,64.61
2022-12-26T06:27:04.225Z,64.39
2022-12-26T06:29:30.626Z,64.97
2022-12-26T06:31:58.816Z,64.92
2022-12-26T06:34:27.349Z,64.61
2022-12-26T06:36:55.397Z,64.62
2022-12-26T06:39:22.625Z,65.54
2022-12-26T06:41:49.072Z,64.53
2022-12-26T06:44:18.541Z,64.48
2022-12-26T06:46:45.745Z,64.53
2022-12-26T06:49:12.279Z,63.95
2022-12-26T06:51:39.027Z,64.45
2022-12-26T06:54:05.471Z,64.67
2022-12-26T06:56:32.843Z,64.21
2022-12-26T06:59:01.415Z,64.84
2022-12-26T07:01:28.743Z,64.50
2022-12-26T07:03:55.553Z,64.07
2022-12-26T07:06:29.542Z,63.88
2022-12-26T07:09:00.922Z,64.28
2022-12-26T07:11:28.645Z,63.68
2022-12-26T07:13:56.873Z,64.29
2022-12-26T07:16:23.752Z,64.07
2022-12-26T07:18:52.298Z,64.50
2022-12-26T07:21:18.801Z,64.38
2022-12-26T07:23:45.256Z,64.98
2022-12-26T07:26:12.103Z,64.38
2022-12-26T07:28:38.536Z,64.93
2022-12-26T07:31:05.542Z,64.70
2022-12-26T07:33:32.024Z,64.64
2022-12-26T07:36:02.121Z,64.72
2022-12-26T07:38:28.643Z,64.03
2022-12-26T07:40:58.388Z,64.62
2022-12-26T07:43:25.199Z,64.54
2022-12-26T07:45:52.260Z,64.66
2022-12-26T07:48:18.662Z,64.86
2022-12-26T07:50:49.349Z,64.60
2022-12-26T07:53:15.879Z,64.46
2022-12-26T07:55:42.312Z,65.24
2022-12-26T07:58:08.747Z,65.61
2022-12-26T08:00:35.217Z,65.17
2022-12-26T08:03:07.388Z,65.35
2022-12-26T08:05:34.488Z,64.91
2022-12-26T08:08:00.971Z,64.73
2022-12-26T08:10:27.543Z,65.04
2022-12-26T08:12:54.015Z,65.24
2022-12-26T08:15:20.471Z,65.09
2022-12-26T08:17:46.870Z,65.29
2022-12-26T08:20:13.283Z,65.60
2022-12-26T08:22:39.659Z,66.06
2022-12-26T08:25:07.182Z,67.16
2022-12-26T08:27:33.869Z,66.32
2022-12-26T08:30:00.299Z,66.81
2022-12-26T08:32:26.835Z,67.41
2022-12-26T08:34:53.233Z,67.78
2022-12-26T08:37:22.300Z,68.27
2022-12-26T08:39:49.568Z,68.65
2022-12-26T08:42:16.017Z,69.57
2022-12-26T08:44:42.542Z,69.69
2022-12-26T08:47:08.972Z,70.12
2022-12-26T08:49:35.401Z,70.95
2022-12-26T08:52:01.935Z,70.43
2022-12-26T08:54:28.645Z,71.39
2022-12-26T08:56:55.061Z,71.86
2022-12-26T08:59:21.900Z,72.34
2022-12-26T09:01:48.425Z,72.01
2022-12-26T09:04:15.014Z,73.21
2022-12-26T09:06:41.774Z,74.12
2022-12-26T09:09:11.244Z,72.79
2022-12-26T09:11:38.469Z,72.68
2022-12-26T09:14:05.409Z,72.31
2022-12-26T09:16:37.947Z,73.29
2022-12-26T09:19:05.655Z,73.18
2022-12-26T09:21:32.546Z,73.75
2022-12-26T09:23:59.900Z,73.92
2022-12-26T09:26:28.157Z,74.49
2022-12-26T09:28:54.849Z,74.90
2022-12-26T09:31:23.339Z,74.59
2022-12-26T09:33:50.055Z,76.05
2022-12-26T09:36:18.374Z,74.93
2022-12-26T09:38:46.015Z,75.30
2022-12-26T09:41:18.285Z,76.41
2022-12-26T09:44:00.214Z,76.82
2022-12-26T09:46:33.218Z,76.49
2022-12-26T09:49:13.932Z,75.92
2022-12-26T09:51:41.746Z,76.41
2022-12-26T09:54:14.477Z,76.25
2022-12-26T09:59:27.493Z,75.64
2022-12-26T10:01:54.098Z,76.05
2022-12-26T10:04:29.932Z,75.93
2022-12-26T10:07:05.301Z,75.25
2022-12-26T10:09:44.051Z,74.37
2022-12-26T10:12:21.527Z,74.43
2022-12-26T10:14:55.590Z,73.72
2022-12-26T10:17:31.894Z,73.40
2022-12-26T10:20:20.914Z,73.49
2022-12-26T10:23:06.135Z,73.21
2022-12-26T10:25:35.551Z,73.96
2022-12-26T10:28:04.193Z,73.91
2022-12-26T10:30:35.340Z,73.46
2022-12-26T10:33:04.631Z,74.16
2022-12-26T10:35:33.501Z,74.41
2022-12-26T10:38:03.552Z,75.01
2022-12-26T10:40:34.019Z,75.59
2022-12-26T10:43:11.882Z,75.14
2022-12-26T10:45:54.092Z,75.59
2022-12-26T10:48:20.869Z,75.69
2022-12-26T10:50:48.644Z,75.68
2022-12-26T10:53:15.972Z,75.89
2022-12-26T10:55:42.494Z,75.30
2022-12-26T10:58:20.080Z,75.41
2022-12-26T11:00:46.758Z,75.28
2022-12-26T11:03:14.393Z,74.91
2022-12-26T11:08:32.636Z,74.54
2022-12-26T11:11:08.397Z,74.33
2022-12-26T11:13:46.258Z,74.76
2022-12-26T11:16:13.567Z,74.76
2022-12-26T11:18:48.069Z,74.50
2022-12-26T11:21:17.433Z,73.91
2022-12-26T11:23:47.688Z,74.90
2022-12-26T11:26:21.124Z,74.39
2022-12-26T11:28:47.567Z,75.32
2022-12-26T11:31:21.804Z,76.70
2022-12-26T11:33:49.852Z,76.41
2022-12-26T11:36:16.422Z,76.98
2022-12-26T11:38:45.411Z,76.65
2022-12-26T11:41:33.264Z,76.96
2022-12-26T11:44:11.503Z,75.88
2022-12-26T11:46:38.079Z,75.90
2022-12-26T11:49:05.085Z,75.05
2022-12-26T11:51:43.114Z,75.79
2022-12-26T11:54:21.134Z,75.63
2022-12-26T11:56:48.023Z,75.86
2022-12-26T11:59:21.751Z,74.78
2022-12-26T12:01:50.025Z,75.58
2022-12-26T12:04:17.338Z,75.08
2022-12-26T12:07:01.421Z,75.92
2022-12-26T12:09:40.838Z,75.95
2022-12-26T12:12:26.804Z,74.24
2022-12-26T12:15:00.720Z,75.67
2022-12-26T12:17:27.142Z,76.09
2022-12-26T12:20:05.727Z,75.15
2022-12-26T12:22:41.560Z,75.51
2022-12-26T12:25:23.441Z,74.35
2022-12-26T12:28:01.955Z,74.14
2022-12-26T12:30:45.733Z,74.72
2022-12-26T12:33:15.162Z,75.90
2022-12-26T12:35:53.767Z,74.36
2022-12-26T12:38:20.412Z,73.27
2022-12-26T12:40:52.295Z,73.88
2022-12-26T12:43:37.738Z,73.32
2022-12-26T12:46:22.940Z,74.47
2022-12-26T12:48:58.226Z,75.23
2022-12-26T12:51:34.374Z,76.35
2022-12-26T12:54:21.204Z,76.02
2022-12-26T12:56:50.797Z,76.62
2022-12-26T12:59:25.860Z,76.79
2022-12-26T13:01:55.756Z,76.54
2022-12-26T13:04:22.295Z,76.98
2022-12-26T13:07:00.884Z,76.34
2022-12-26T13:09:34.718Z,76.82
2022-12-26T13:12:06.267Z,75.98
2022-12-26T13:14:49.015Z,75.71
2022-12-26T13:17:23.829Z,75.14
2022-12-26T13:20:01.818Z,74.86
2022-12-26T13:22:54.801Z,75.04
2022-12-26T13:25:22.714Z,75.44
2022-12-26T13:27:49.552Z,75.66
2022-12-26T13:30:17.051Z,75.62
2022-12-26T13:32:46.706Z,75.10
2022-12-26T13:35:32.375Z,74.47
2022-12-26T13:37:58.833Z,75.20
2022-12-26T13:40:29.744Z,75.08
2022-12-26T13:43:18.153Z,75.44
2022-12-26T13:45:52.512Z,74.95
2022-12-26T13:48:18.944Z,74.51
2022-12-26T13:50:53.447Z,74.14
2022-12-26T13:53:25.303Z,74.34
2022-12-26T13:55:52.907Z,73.90
2022-12-26T13:58:35.531Z,74.88
2022-12-26T14:01:11.387Z,74.96
2022-12-26T14:03:38.187Z,75.26
2022-12-26T14:06:04.690Z,74.82
2022-12-26T14:08:37.230Z,74.95
2022-12-26T14:11:06.893Z,74.62
2022-12-26T14:13:52.520Z,75.22
2022-12-26T14:16:22.546Z,75.20
2022-12-26T14:19:10.192Z,74.14
2022-12-26T14:21:36.563Z,74.62
2022-12-26T14:24:03.154Z,74.55
2022-12-26T14:26:36.161Z,74.30
2022-12-26T14:29:08.621Z,74.00
2022-12-26T14:31:53.415Z,74.41
2022-12-26T14:34:38.764Z,73.99
2022-12-26T14:37:16.149Z,73.45
2022-12-26T14:40:04.912Z,73.42
2022-12-26T14:43:09.660Z,73.28
2022-12-26T14:45:36.680Z,73.07
2022-12-26T14:48:29.184Z,73.54
2022-12-26T14:50:55.554Z,73.23
2022-12-26T14:53:27.104Z,73.39
2022-12-26T14:56:24.289Z,72.76
2022-12-26T14:58:51.570Z,73.59
2022-12-26T15:01:24.034Z,73.19
2022-12-26T15:04:09.099Z,73.45
2022-12-26T15:06:54.457Z,72.49
2022-12-26T15:09:48.187Z,72.61
2022-12-26T15:12:33.518Z,72.83
2022-12-26T15:15:08.823Z,72.50
2022-12-26T15:17:35.174Z,72.84
2022-12-26T15:20:27.678Z,72.84
2022-12-26T15:23:03.923Z,72.51
2022-12-26T15:25:43.782Z,72.24
2022-12-26T15:28:28.830Z,72.37
2022-12-26T15:31:07.549Z,72.20
2022-12-26T15:33:54.259Z,71.97
2022-12-26T15:36:23.754Z,71.98
2022-12-26T15:38:57.330Z,72.28
2022-12-26T15:41:30.471Z,71.78
2022-12-26T15:45:59.437Z,72.52
2022-12-26T15:48:44.504Z,71.77
2022-12-26T15:51:17.143Z,71.97
2022-12-26T15:54:16.233Z,72.33
2022-12-26T15:56:52.124Z,72.24
2022-12-26T15:59:38.673Z,72.77
2022-12-26T16:02:13.099Z,72.54
2022-12-26T16:04:51.825Z,72.53
2022-12-26T16:07:27.625Z,72.33
2022-12-26T16:09:55.289Z,72.85
2022-12-26T16:12:24.508Z,72.65
2022-12-26T16:14:59.998Z,71.90
2022-12-26T16:17:26.545Z,72.21
2022-12-26T16:19:53.467Z,71.61
2022-12-26T16:22:49.458Z,71.42
2022-12-26T16:25:21.470Z,71.68
2022-12-26T16:27:49.030Z,71.76
2022-12-26T16:30:20.597Z,71.32
2022-12-26T16:32:47.583Z,71.13
2022-12-26T16:35:22.695Z,70.69
2022-12-26T16:37:49.878Z,70.71
2022-12-26T16:40:18.585Z,71.28
2022-12-26T16:43:08.431Z,71.60
2022-12-26T16:45:36.016Z,71.34
2022-12-26T16:48:04.959Z,72.38
2022-12-26T16:50:33.014Z,71.72
2022-12-26T16:53:09.319Z,71.67
2022-12-26T16:55:35.797Z,72.00
2022-12-26T16:58:04.559Z,72.04
2022-12-26T17:00:32.801Z,71.67
2022-12-26T17:03:00.623Z,71.78
2022-12-26T17:05:29.301Z,71.68
2022-12-26T17:07:57.282Z,72.22
2022-12-26T17:10:29.863Z,71.60
2022-12-26T17:12:57.764Z,71.62
2022-12-26T17:15:26.510Z,72.02
2022-12-26T17:17:52.936Z,72.05
2022-12-26T17:20:22.471Z,72.19
2022-12-26T17:22:52.966Z,71.92
2022-12-26T17:25:27.940Z,71.71
2022-12-26T17:28:10.835Z,71.28
2022-12-26T17:30:37.301Z,72.23
2022-12-26T17:33:15.071Z,71.99
2022-12-26T17:36:38.342Z,72.25
2022-12-26T17:38:29.375Z,73.37
2022-12-26T17:40:57.110Z,72.94
2022-12-26T17:43:24.966Z,72.48
2022-12-26T17:45:51.702Z,73.33
2022-12-26T17:48:18.134Z,73.08
2022-12-26T17:50:46.552Z,72.53
2022-12-26T17:53:12.941Z,72.63
2022-12-26T17:55:39.660Z,72.26
2022-12-26T17:58:06.270Z,72.05
2022-12-26T18:00:33.259Z,71.41
2022-12-26T18:02:59.725Z,72.45
2022-12-26T18:05:26.179Z,72.17
2022-12-26T18:07:52.607Z,72.05
2022-12-26T18:10:21.026Z,71.99
2022-12-26T18:12:47.962Z,71.94
2022-12-26T18:15:14.620Z,72.01
2022-12-26T18:17:41.600Z,71.69
2022-12-26T18:20:08.665Z,71.79
2022-12-26T18:22:35.142Z,71.74
2022-12-26T18:25:01.577Z,71.68
2022-12-26T18:27:30.482Z,71.27
2022-12-26T18:29:57.399Z,70.93
2022-12-26T18:32:25.671Z,71.01
2022-12-26T18:34:52.539Z,70.67
2022-12-26T18:37:19.783Z,70.70
2022-12-26T18:39:48.468Z,70.75
2022-12-26T18:42:15.867Z,70.52
2022-12-26T18:44:42.768Z,70.56
2022-12-26T18:47:13.542Z,71.42
2022-12-26T18:49:40.498Z,71.52
2022-12-26T18:52:09.260Z,72.07
2022-12-26T18:54:36.443Z,72.22
2022-12-26T18:57:04.020Z,72.72
2022-12-26T18:59:30.528Z,73.50
2022-12-26T19:01:57.083Z,74.14
2022-12-26T19:04:23.583Z,74.84
2022-12-26T19:06:50.098Z,75.63
2022-12-26T19:09:16.699Z,75.13
2022-12-26T19:11:43.296Z,75.39
2022-12-26T19:14:16.439Z,75.40
2022-12-26T19:16:42.904Z,75.18
2022-12-26T19:19:09.383Z,74.43
2022-12-26T19:21:36.033Z,74.31
2022-12-26T19:24:02.430Z,73.38
2022-12-26T19:26:28.881Z,72.83
2022-12-26T19:28:55.701Z,72.99
2022-12-26T19:31:23.035Z,73.09
2022-12-26T19:33:49.624Z,73.79
2022-12-26T19:36:16.249Z,73.51
2022-12-26T19:38:42.684Z,74.63
2022-12-26T19:41:12.873Z,74.49
2022-12-26T19:43:39.947Z,73.66
2022-12-26T19:46:08.215Z,74.58
2022-12-26T19:48:35.740Z,73.08
2022-12-26T19:51:03.317Z,72.98
2022-12-26T19:53:29.882Z,71.28
2022-12-26T19:55:56.361Z,72.21
2022-12-26T19:58:22.959Z,71.60
2022-12-26T20:00:49.836Z,72.21
2022-12-26T20:03:16.323Z,71.29
2022-12-26T20:05:42.844Z,71.84
2022-12-26T20:08:10.122Z,72.12
2022-12-26T20:10:36.889Z,72.19
2022-12-26T20:13:03.431Z,71.92
2022-12-26T20:15:29.870Z,72.10
2022-12-26T20:17:56.362Z,71.77
2022-12-26T20:20:22.897Z,72.03
2022-12-26T20:22:52.997Z,71.08
2022-12-26T20:25:19.866Z,71.20
2022-12-26T20:27:46.337Z,71.61
2022-12-26T20:30:12.844Z,72.27
2022-12-26T20:32:43.879Z,72.47
2022-12-26T20:35:10.313Z,72.71
2022-12-26T20:37:36.761Z,72.97
2022-12-26T20:40:06.135Z,72.41
2022-12-26T20:42:32.791Z,72.01
2022-12-26T20:44:59.193Z,73.10
2022-12-26T20:47:25.637Z,72.70
2022-12-26T20:49:52.069Z,73.05
2022-12-26T20:52:19.085Z,72.01
2022-12-26T20:54:46.778Z,72.83
2022-12-26T20:57:13.218Z,72.05
2022-12-26T20:59:39.648Z,72.03
2022-12-26T21:02:06.774Z,72.32
2022-12-26T21:04:33.392Z,72.58
2022-12-26T21:06:59.851Z,72.58
2022-12-26T21:09:26.305Z,72.99
2022-12-26T21:11:52.772Z,72.61
2022-12-26T21:14:20.889Z,72.96
2022-12-26T21:16:50.619Z,72.22
2022-12-26T21:19:17.584Z,71.79
2022-12-26T21:21:46.011Z,72.64
2022-12-26T21:24:14.067Z,72.57
2022-12-26T21:26:41.998Z,72.61
2022-12-26T21:29:10.818Z,71.78
2022-12-26T21:31:37.782Z,72.69
2022-12-26T21:34:04.860Z,72.23
2022-12-26T21:36:31.573Z,72.06
2022-12-26T21:38:58.110Z,71.69
2022-12-26T21:41:25.128Z,72.44
2022-12-26T21:43:53.334Z,71.77
2022-12-26T21:46:20.336Z,72.50
2022-12-26T21:48:50.251Z,72.00
2022-12-26T21:51:17.473Z,71.81
2022-12-26T21:53:44.103Z,71.80
2022-12-26T21:56:11.564Z,71.60
2022-12-26T21:58:57.330Z,71.38
2022-12-26T22:01:24.494Z,70.82
2022-12-26T22:04:09.859Z,71.30
2022-12-26T22:06:36.774Z,71.08
2022-12-26T22:09:03.831Z,71.43
2022-12-26T22:11:48.931Z,70.70
2022-12-26T22:14:15.357Z,70.68
2022-12-26T22:16:43.227Z,70.86
2022-12-26T22:19:09.839Z,70.93
2022-12-26T22:21:36.425Z,70.48
2022-12-26T22:24:03.105Z,70.22
2022-12-26T22:26:29.769Z,70.20
2022-12-26T22:28:56.665Z,69.96
2022-12-26T22:31:31.636Z,70.29
2022-12-26T22:33:59.603Z,69.82
2022-12-26T22:36:26.578Z,69.88
2022-12-26T22:38:53.235Z,69.62
2022-12-26T22:41:19.788Z,69.43
2022-12-26T22:43:46.284Z,69.54
2022-12-26T22:46:13.005Z,69.16
2022-12-26T22:48:39.681Z,68.66
2022-12-26T22:51:06.383Z,68.16
2022-12-26T22:53:33.116Z,68.77
2022-12-26T22:56:01.327Z,68.54
2022-12-26T22:58:28.086Z,69.25
2022-12-26T23:00:54.939Z,68.45
2022-12-26T23:03:21.532Z,67.42
2022-12-26T23:05:48.229Z,69.55
2022-12-26T23:08:16.720Z,69.44
2022-12-26T23:10:43.438Z,69.15
2022-12-26T23:13:11.749Z,69.61
2022-12-26T23:15:44.355Z,70.44
2022-12-26T23:18:41.591Z,68.95
2022-12-26T23:21:27.448Z,70.49
2022-12-26T23:23:53.903Z,69.37
2022-12-26T23:26:20.283Z,69.31
2022-12-26T23:29:05.562Z,70.42
2022-12-26T23:31:32.050Z,68.83
2022-12-26T23:33:58.502Z,69.75
2022-12-26T23:36:24.881Z,69.12
2022-12-26T23:38:51.437Z,69.07
2022-12-26T23:41:17.892Z,68.05
2022-12-26T23:43:44.298Z,67.12
2022-12-26T23:46:10.993Z,67.27
2022-12-26T23:48:37.475Z,66.87
2022-12-26T23:51:05.303Z,67.31
2022-12-26T23:53:32.080Z,67.24
2022-12-26T23:55:58.641Z,67.26
2022-12-26T23:58:25.213Z,67.25
